createdAt,value
2023-05-14T00:01:33.233Z,20.78
2023-05-14T00:04:01.867Z,20.71
2023-05-14T00:06:30.324Z,20.67
2023-05-14T00:09:00.024Z,20.59
2023-05-14T00:11:28.202Z,20.53
2023-05-14T00:13:56.493Z,20.43
2023-05-14T00:16:25.412Z,20.46
2023-05-14T00:18:54.076Z,20.53
2023-05-14T00:21:23.068Z,20.46
2023-05-14T00:23:51.361Z,20.70
2023-05-14T00:26:21.577Z,20.51
2023-05-14T00:28:49.884Z,20.48
2023-05-14T00:31:18.110Z,20.48
2023-05-14T00:33:46.675Z,20.53
2023-05-14T00:36:15.254Z,20.44
2023-05-14T00:38:46.055Z,20.43
2023-05-14T00:41:14.365Z,20.35
2023-05-14T00:43:44.455Z,20.22
2023-05-14T00:46:13.748Z,20.27
2023-05-14T00:48:42.496Z,20.41
2023-05-14T00:51:11.189Z,20.48
2023-05-14T00:53:39.637Z,20.53
2023-05-14T00:56:08.420Z,20.52
2023-05-14T00:58:36.824Z,20.58
2023-05-14T01:01:06.858Z,20.58
2023-05-14T01:03:35.742Z,20.52
2023-05-14T01:06:13.720Z,20.35
2023-05-14T01:08:51.940Z,20.46
2023-05-14T01:11:26.285Z,20.32
2023-05-14T01:14:04.683Z,20.18
2023-05-14T01:16:35.696Z,20.18
2023-05-14T01:19:06.752Z,20.15
2023-05-14T01:21:40.595Z,20.18
2023-05-14T01:24:12.076Z,20.17
2023-05-14T01:26:41.159Z,20.05
2023-05-14T01:29:15.364Z,20.23
2023-05-14T01:31:47.436Z,20.14
2023-05-14T01:34:19.221Z,20.09
2023-05-14T01:36:52.699Z,20.11
2023-05-14T01:39:21.454Z,20.09
2023-05-14T01:41:50.997Z,20.07
2023-05-14T01:44:28.048Z,20.11
2023-05-14T01:46:56.787Z,20.23
2023-05-14T01:49:25.356Z,20.08
2023-05-14T01:51:55.816Z,20.22
2023-05-14T01:54:24.091Z,20.30
2023-05-14T01:56:52.687Z,20.14
2023-05-14T01:59:21.206Z,20.23
2023-05-14T02:01:49.452Z,20.09
2023-05-14T02:04:17.803Z,20.12
2023-05-14T02:06:46.099Z,20.09
2023-05-14T02:09:15.968Z,20.06
2023-05-14T02:11:44.440Z,20.09
2023-05-14T02:14:12.866Z,20.12
2023-05-14T02:16:41.397Z,20.17
2023-05-14T02:19:10.100Z,20.12
2023-05-14T02:21:38.282Z,20.13
2023-05-14T02:24:06.890Z,19.88
2023-05-14T02:26:36.496Z,20.04
2023-05-14T02:29:04.823Z,19.96
2023-05-14T02:31:33.393Z,20.08
2023-05-14T02:34:05.433Z,20.08
2023-05-14T02:36:34.280Z,20.08
2023-05-14T02:39:04.758Z,20.15
2023-05-14T02:41:32.934Z,19.98
2023-05-14T02:44:03.246Z,19.74
2023-05-14T02:46:35.496Z,19.68
2023-05-14T02:49:04.445Z,19.61
2023-05-14T02:51:35.751Z,19.46
2023-05-14T02:54:03.892Z,19.60
2023-05-14T02:56:32.450Z,19.66
2023-05-14T02:59:00.721Z,19.56
2023-05-14T03:01:32.638Z,19.40
2023-05-14T03:04:01.896Z,19.59
2023-05-14T03:06:30.165Z,19.53
2023-05-14T03:08:58.295Z,19.58
2023-05-14T03:11:26.767Z,19.53
2023-05-14T03:13:55.153Z,19.35
2023-05-14T03:16:23.715Z,19.25
2023-05-14T03:18:53.970Z,19.35
2023-05-14T03:21:22.110Z,19.59
2023-05-14T03:23:50.663Z,19.52
2023-05-14T03:26:19.798Z,19.65
2023-05-14T03:28:47.918Z,19.62
2023-05-14T03:31:16.145Z,19.66
2023-05-14T03:33:44.757Z,19.70
2023-05-14T03:36:14.809Z,19.64
2023-05-14T03:38:43.287Z,19.66
2023-05-14T03:41:11.774Z,19.69
2023-05-14T03:43:40.140Z,19.63
2023-05-14T03:46:08.348Z,19.78
2023-05-14T03:48:36.993Z,19.61
2023-05-14T03:51:05.480Z,19.73
2023-05-14T03:53:35.474Z,19.79
2023-05-14T03:56:04.110Z,19.78
2023-05-14T03:58:35.189Z,19.63
2023-05-14T04:01:03.801Z,19.80
2023-05-14T04:03:34.869Z,19.78
2023-05-14T04:06:03.348Z,19.68
2023-05-14T04:08:31.699Z,19.59
2023-05-14T04:11:01.446Z,19.62
2023-05-14T04:13:30.137Z,19.58
2023-05-14T04:15:58.992Z,19.56
2023-05-14T04:18:27.555Z,19.53
2023-05-14T04:20:55.884Z,19.58
2023-05-14T04:23:24.235Z,19.64
2023-05-14T04:25:52.505Z,19.93
2023-05-14T04:28:22.262Z,20.00
2023-05-14T04:30:50.884Z,20.05
2023-05-14T04:33:19.367Z,20.00
2023-05-14T04:35:48.426Z,19.81
2023-05-14T04:38:16.615Z,19.83
2023-05-14T04:40:45.081Z,19.90
2023-05-14T04:43:14.041Z,19.76
2023-05-14T04:45:43.752Z,19.67
2023-05-14T04:48:12.715Z,19.70
2023-05-14T04:50:40.925Z,19.76
2023-05-14T04:53:09.387Z,19.51
2023-05-14T04:55:37.714Z,19.59
2023-05-14T04:58:05.832Z,19.76
2023-05-14T05:00:34.468Z,19.82
2023-05-14T05:03:07.063Z,19.88
2023-05-14T05:05:35.488Z,20.08
2023-05-14T05:08:03.811Z,20.01
2023-05-14T05:10:35.009Z,19.86
2023-05-14T05:13:03.409Z,19.90
2023-05-14T05:15:34.177Z,20.16
2023-05-14T05:18:03.364Z,20.23
2023-05-14T05:20:33.864Z,20.17
2023-05-14T05:23:02.637Z,20.12
2023-05-14T05:25:31.496Z,20.11
2023-05-14T05:27:59.626Z,20.13
2023-05-14T05:30:27.875Z,20.22
2023-05-14T05:32:57.366Z,20.33
2023-05-14T05:35:25.605Z,20.37
2023-05-14T05:37:56.064Z,20.46
2023-05-14T05:40:25.030Z,20.45
2023-05-14T05:42:53.706Z,20.52
2023-05-14T05:45:22.123Z,20.57
2023-05-14T05:47:50.451Z,20.55
2023-05-14T05:50:19.964Z,20.49
2023-05-14T05:52:48.827Z,20.44
2023-05-14T05:55:20.121Z,20.49
2023-05-14T05:57:48.231Z,20.46
2023-05-14T06:00:17.581Z,20.64
2023-05-14T06:02:46.288Z,20.66
2023-05-14T06:05:14.977Z,20.73
2023-05-14T06:07:43.163Z,20.70
2023-05-14T06:10:11.922Z,20.65
2023-05-14T06:12:41.753Z,20.73
2023-05-14T06:15:10.456Z,20.83
2023-05-14T06:17:38.717Z,20.92
2023-05-14T06:20:09.086Z,21.10
2023-05-14T06:22:40.395Z,21.14
2023-05-14T06:25:09.890Z,21.17
2023-05-14T06:27:38.226Z,21.20
2023-05-14T06:30:09.292Z,21.12
2023-05-14T06:32:37.461Z,21.32
2023-05-14T06:35:06.613Z,21.38
2023-05-14T06:37:35.271Z,21.37
2023-05-14T06:40:03.813Z,21.31
2023-05-14T06:42:34.899Z,21.26
2023-05-14T06:45:03.338Z,21.33
2023-05-14T06:47:33.522Z,21.19
2023-05-14T06:50:02.183Z,21.28
2023-05-14T06:52:30.617Z,21.15
2023-05-14T06:54:59.336Z,21.39
2023-05-14T06:57:28.234Z,21.44
2023-05-14T06:59:58.722Z,21.46
2023-05-14T07:02:27.050Z,21.34
2023-05-14T07:04:56.834Z,21.33
2023-05-14T07:07:24.937Z,21.38
2023-05-14T07:09:53.134Z,21.37
2023-05-14T07:12:21.392Z,21.66
2023-05-14T07:14:50.120Z,21.70
2023-05-14T07:17:18.543Z,21.88
2023-05-14T07:19:47.842Z,21.76
2023-05-14T07:22:17.459Z,21.99
2023-05-14T07:24:46.032Z,22.14
2023-05-14T07:27:14.560Z,22.07
2023-05-14T07:29:42.661Z,21.81
2023-05-14T07:32:15.574Z,21.93
2023-05-14T07:34:44.459Z,21.98
2023-05-14T07:37:12.691Z,22.05
2023-05-14T07:39:42.529Z,22.10
2023-05-14T07:42:12.488Z,22.05
2023-05-14T07:44:43.653Z,22.09
2023-05-14T07:47:12.232Z,22.42
2023-05-14T07:49:40.972Z,22.66
2023-05-14T07:52:09.878Z,22.62
2023-05-14T07:54:38.075Z,22.60
2023-05-14T07:57:08.113Z,22.27
2023-05-14T07:59:36.489Z,21.97
2023-05-14T08:02:05.030Z,21.99
2023-05-14T08:04:33.832Z,22.04
2023-05-14T08:07:02.429Z,21.90
2023-05-14T08:09:30.879Z,21.86
2023-05-14T08:11:59.011Z,21.72
2023-05-14T08:14:28.797Z,21.74
2023-05-14T08:16:57.667Z,21.88
2023-05-14T08:19:27.445Z,21.96
2023-05-14T08:21:56.254Z,21.95
2023-05-14T08:24:24.828Z,22.08
2023-05-14T08:26:53.256Z,22.33
2023-05-14T08:29:21.811Z,22.50
2023-05-14T08:31:53.344Z,22.74
2023-05-14T08:34:22.573Z,22.83
2023-05-14T08:36:51.031Z,23.03
2023-05-14T08:39:19.545Z,23.49
2023-05-14T08:41:48.502Z,23.74
2023-05-14T08:44:21.671Z,23.94
2023-05-14T08:46:52.760Z,23.91
2023-05-14T08:49:30.112Z,23.78
2023-05-14T08:51:59.500Z,23.96
2023-05-14T08:54:30.181Z,23.92
2023-05-14T08:56:59.357Z,24.17
2023-05-14T08:59:30.173Z,24.34
2023-05-14T09:02:04.373Z,24.32
2023-05-14T09:04:34.254Z,24.51
2023-05-14T09:07:04.710Z,24.55
2023-05-14T09:09:33.430Z,24.53
2023-05-14T09:12:03.672Z,24.44
2023-05-14T09:14:32.028Z,24.38
2023-05-14T09:17:02.057Z,24.29
2023-05-14T09:19:30.724Z,24.42
2023-05-14T09:22:00.336Z,24.50
2023-05-14T09:24:29.754Z,24.56
2023-05-14T09:26:59.779Z,24.68
2023-05-14T09:29:31.977Z,24.53
2023-05-14T09:32:07.602Z,24.66
2023-05-14T09:34:38.118Z,24.72
2023-05-14T09:37:07.909Z,24.53
2023-05-14T09:39:38.160Z,24.56
2023-05-14T09:42:07.131Z,24.64
2023-05-14T09:44:36.545Z,24.69
2023-05-14T09:47:10.329Z,24.66
2023-05-14T09:49:41.383Z,24.72
2023-05-14T09:52:09.698Z,24.77
2023-05-14T09:54:41.937Z,24.66
2023-05-14T09:57:10.356Z,24.63
2023-05-14T09:59:39.340Z,24.38
2023-05-14T10:02:18.375Z,24.50
2023-05-14T10:04:46.977Z,24.61
2023-05-14T10:07:16.113Z,24.57
2023-05-14T10:09:48.239Z,24.79
2023-05-14T10:12:21.190Z,25.05
2023-05-14T10:14:55.125Z,25.09
2023-05-14T10:17:32.909Z,25.13
2023-05-14T10:20:04.632Z,25.14
2023-05-14T10:22:36.815Z,24.93
2023-05-14T10:25:06.505Z,24.96
2023-05-14T10:27:35.664Z,25.16
2023-05-14T10:30:19.950Z,24.64
2023-05-14T10:32:49.812Z,24.28
2023-05-14T10:35:20.825Z,24.57
2023-05-14T10:37:53.038Z,24.75
2023-05-14T10:40:26.514Z,25.18
2023-05-14T10:42:56.075Z,25.34
2023-05-14T10:45:25.358Z,25.58
2023-05-14T10:47:56.146Z,25.30
2023-05-14T10:50:24.789Z,25.41
2023-05-14T10:52:55.614Z,25.30
2023-05-14T10:55:24.197Z,25.29
2023-05-14T10:57:53.895Z,25.60
2023-05-14T11:00:27.850Z,25.50
2023-05-14T11:02:59.012Z,25.25
2023-05-14T11:05:27.876Z,25.27
2023-05-14T11:07:58.741Z,25.18
2023-05-14T11:10:30.073Z,25.18
2023-05-14T11:12:59.052Z,25.33
2023-05-14T11:15:28.477Z,25.42
2023-05-14T11:17:58.135Z,25.47
2023-05-14T11:20:26.607Z,25.52
2023-05-14T11:22:55.429Z,25.59
2023-05-14T11:25:26.925Z,25.88
2023-05-14T11:27:59.426Z,25.79
2023-05-14T11:30:29.571Z,25.91
2023-05-14T11:33:01.790Z,25.69
2023-05-14T11:35:30.584Z,25.78
2023-05-14T11:37:59.177Z,25.88
2023-05-14T11:40:28.387Z,26.01
2023-05-14T11:42:57.626Z,25.71
2023-05-14T11:45:26.890Z,25.91
2023-05-14T11:47:55.746Z,25.82
2023-05-14T11:50:26.267Z,25.95
2023-05-14T11:52:58.605Z,26.02
2023-05-14T11:55:27.390Z,26.14
2023-05-14T11:57:58.719Z,25.77
2023-05-14T12:00:28.241Z,25.94
2023-05-14T12:02:59.520Z,25.95
2023-05-14T12:05:29.253Z,25.91
2023-05-14T12:07:57.663Z,25.71
2023-05-14T12:10:26.221Z,25.64
2023-05-14T12:12:59.043Z,25.71
2023-05-14T12:15:30.476Z,25.85
2023-05-14T12:17:59.147Z,25.97
2023-05-14T12:20:33.068Z,25.90
2023-05-14T12:23:01.814Z,25.89
2023-05-14T12:25:31.044Z,25.95
2023-05-14T12:27:59.279Z,26.10
2023-05-14T12:30:30.541Z,25.80
2023-05-14T12:32:58.947Z,25.81
2023-05-14T12:35:28.897Z,25.81
2023-05-14T12:37:57.144Z,25.49
2023-05-14T12:40:27.771Z,25.28
2023-05-14T12:42:56.981Z,25.08
2023-05-14T12:45:25.887Z,24.82
2023-05-14T12:47:54.517Z,25.16
2023-05-14T12:50:23.084Z,25.06
2023-05-14T12:52:53.124Z,25.15
2023-05-14T12:55:21.640Z,25.04
2023-05-14T12:57:50.104Z,25.01
2023-05-14T13:00:19.315Z,24.94
2023-05-14T13:02:47.671Z,24.99
2023-05-14T13:05:16.076Z,24.88
2023-05-14T13:07:44.375Z,25.22
2023-05-14T13:10:14.267Z,25.35
2023-05-14T13:12:42.611Z,25.29
2023-05-14T13:15:12.303Z,25.32
2023-05-14T13:17:42.345Z,25.25
2023-05-14T13:20:13.758Z,25.32
2023-05-14T13:22:42.261Z,25.59
2023-05-14T13:25:13.699Z,25.80
2023-05-14T13:27:43.605Z,25.66
2023-05-14T13:30:12.734Z,25.50
2023-05-14T13:32:43.470Z,25.69
2023-05-14T13:35:15.077Z,25.77
2023-05-14T13:37:44.834Z,25.66
2023-05-14T13:40:14.040Z,25.92
2023-05-14T13:42:43.719Z,26.08
2023-05-14T13:45:15.685Z,26.13
2023-05-14T13:47:44.432Z,25.46
2023-05-14T13:50:14.907Z,25.15
2023-05-14T13:52:46.333Z,24.96
2023-05-14T13:55:15.510Z,25.26
2023-05-14T13:57:45.317Z,25.24
2023-05-14T14:00:16.090Z,25.09
2023-05-14T14:02:44.811Z,25.00
2023-05-14T14:05:13.276Z,25.15
2023-05-14T14:07:42.296Z,24.99
2023-05-14T14:10:12.241Z,24.90
2023-05-14T14:12:41.003Z,25.07
2023-05-14T14:15:12.555Z,25.09
2023-05-14T14:17:42.353Z,25.04
2023-05-14T14:20:11.634Z,25.24
2023-05-14T14:22:39.860Z,25.38
2023-05-14T14:25:09.156Z,25.36
2023-05-14T14:27:38.863Z,25.06
2023-05-14T14:30:09.598Z,25.10
2023-05-14T14:32:39.444Z,25.22
2023-05-14T14:35:08.309Z,25.29
2023-05-14T14:37:36.528Z,25.20
2023-05-14T14:40:09.624Z,24.91
2023-05-14T14:42:38.476Z,24.84
2023-05-14T14:45:07.820Z,24.89
2023-05-14T14:47:46.132Z,24.69
2023-05-14T14:50:16.323Z,24.95
2023-05-14T14:52:46.138Z,25.09
2023-05-14T14:55:17.519Z,25.17
2023-05-14T14:57:45.657Z,25.00
2023-05-14T15:00:16.001Z,24.94
2023-05-14T15:02:46.257Z,25.01
2023-05-14T15:05:16.886Z,25.06
2023-05-14T15:07:45.509Z,25.04
2023-05-14T15:10:13.667Z,24.97
2023-05-14T15:12:42.020Z,25.02
2023-05-14T15:15:12.580Z,24.96
2023-05-14T15:17:41.249Z,24.75
2023-05-14T15:20:12.469Z,24.86
2023-05-14T15:22:40.997Z,24.90
2023-05-14T15:25:09.832Z,24.55
2023-05-14T15:27:40.993Z,24.74
2023-05-14T15:30:10.214Z,24.82
2023-05-14T15:32:41.825Z,24.57
2023-05-14T15:35:11.735Z,24.60
2023-05-14T15:37:41.191Z,24.57
2023-05-14T15:40:13.842Z,24.39
2023-05-14T15:42:44.792Z,24.37
2023-05-14T15:45:14.431Z,24.39
2023-05-14T15:47:44.298Z,24.58
2023-05-14T15:50:15.188Z,24.45
2023-05-14T15:52:43.742Z,24.72
2023-05-14T15:55:12.437Z,24.80
2023-05-14T15:57:43.737Z,24.92
2023-05-14T16:00:13.306Z,24.76
2023-05-14T16:02:41.638Z,24.67
2023-05-14T16:05:10.901Z,24.83
2023-05-14T16:07:41.139Z,24.64
2023-05-14T16:10:10.201Z,24.64
2023-05-14T16:12:38.756Z,24.66
2023-05-14T16:15:10.659Z,24.96
2023-05-14T16:17:39.141Z,25.24
2023-05-14T16:20:08.271Z,25.12
2023-05-14T16:22:36.897Z,25.10
2023-05-14T16:25:07.343Z,25.05
2023-05-14T16:27:36.628Z,24.80
2023-05-14T16:30:06.155Z,24.81
2023-05-14T16:32:34.529Z,24.91
2023-05-14T16:35:06.299Z,24.86
2023-05-14T16:37:34.799Z,24.99
2023-05-14T16:40:11.719Z,24.82
2023-05-14T16:42:40.524Z,24.78
2023-05-14T16:45:10.674Z,24.44
2023-05-14T16:47:39.075Z,24.74
2023-05-14T16:50:09.046Z,24.83
2023-05-14T16:52:37.309Z,24.85
2023-05-14T16:55:08.301Z,24.86
2023-05-14T16:57:36.980Z,24.73
2023-05-14T17:00:06.329Z,24.64
2023-05-14T17:02:35.014Z,24.71
2023-05-14T17:05:04.797Z,24.76
2023-05-14T17:07:33.578Z,24.69
2023-05-14T17:10:02.390Z,24.84
2023-05-14T17:12:34.941Z,24.49
2023-05-14T17:15:06.200Z,24.44
2023-05-14T17:17:36.565Z,24.39
2023-05-14T17:20:08.449Z,24.40
2023-05-14T17:22:37.089Z,24.41
2023-05-14T17:25:09.103Z,24.55
2023-05-14T17:27:42.064Z,24.40
2023-05-14T17:30:11.113Z,24.52
2023-05-14T17:32:39.373Z,24.31
2023-05-14T17:35:09.895Z,24.26
2023-05-14T17:37:38.453Z,24.31
2023-05-14T17:40:11.324Z,24.30
2023-05-14T17:42:41.580Z,24.18
2023-05-14T17:48:00.141Z,24.05
2023-05-14T17:50:29.030Z,23.68
2023-05-14T17:52:58.895Z,23.37
2023-05-14T17:55:27.900Z,23.79
2023-05-14T17:58:01.408Z,23.77
2023-05-14T18:00:30.966Z,23.68
2023-05-14T18:03:02.793Z,23.51
2023-05-14T18:05:32.198Z,23.46
2023-05-14T18:08:01.196Z,23.38
2023-05-14T18:10:31.613Z,23.48
2023-05-14T18:13:01.637Z,23.48
2023-05-14T18:15:33.900Z,23.70
2023-05-14T18:18:05.467Z,23.53
2023-05-14T18:20:35.534Z,23.20
2023-05-14T18:23:04.504Z,23.23
2023-05-14T18:25:36.659Z,23.03
2023-05-14T18:28:08.110Z,23.13
2023-05-14T18:30:39.967Z,23.02
2023-05-14T18:33:11.731Z,22.94
2023-05-14T18:35:48.559Z,22.87
2023-05-14T18:38:20.191Z,22.62
2023-05-14T18:40:49.627Z,22.86
2023-05-14T18:43:19.958Z,22.73
2023-05-14T18:45:49.028Z,22.90
2023-05-14T18:48:18.019Z,22.83
2023-05-14T18:50:46.764Z,22.79
2023-05-14T18:53:15.025Z,22.80
2023-05-14T18:55:43.323Z,22.80
2023-05-14T18:58:14.719Z,22.72
2023-05-14T19:00:50.387Z,22.72
2023-05-14T19:03:20.761Z,22.65
2023-05-14T19:05:50.769Z,22.54
2023-05-14T19:08:19.301Z,22.58
2023-05-14T19:10:56.043Z,22.47
2023-05-14T19:13:24.234Z,22.44
2023-05-14T19:15:54.110Z,22.45
2023-05-14T19:18:28.728Z,22.46
2023-05-14T19:20:57.679Z,22.49
2023-05-14T19:23:26.321Z,22.54
2023-05-14T19:25:54.933Z,22.58
2023-05-14T19:28:26.168Z,22.55
2023-05-14T19:30:57.736Z,22.59
2023-05-14T19:33:27.007Z,22.53
2023-05-14T19:35:55.441Z,22.41
2023-05-14T19:38:23.916Z,22.39
2023-05-14T19:40:53.714Z,22.26
2023-05-14T19:43:22.781Z,22.35
2023-05-14T19:45:51.437Z,22.27
2023-05-14T19:48:21.527Z,22.21
2023-05-14T19:50:49.933Z,22.03
2023-05-14T19:53:18.199Z,21.97
2023-05-14T19:55:46.570Z,22.10
2023-05-14T19:58:18.098Z,21.98
2023-05-14T20:00:47.687Z,21.80
2023-05-14T20:03:15.966Z,21.63
2023-05-14T20:05:47.012Z,21.52
2023-05-14T20:08:17.044Z,21.40
2023-05-14T20:10:45.779Z,21.27
2023-05-14T20:13:16.464Z,21.08
2023-05-14T20:15:44.678Z,21.20
2023-05-14T20:18:13.382Z,21.06
2023-05-14T20:20:43.147Z,21.19
2023-05-14T20:23:12.895Z,20.88
2023-05-14T20:25:41.512Z,21.17
2023-05-14T20:28:09.929Z,21.08
2023-05-14T20:30:38.378Z,21.21
2023-05-14T20:33:09.926Z,21.23
2023-05-14T20:35:38.496Z,21.18
2023-05-14T20:38:07.209Z,20.84
2023-05-14T20:40:40.719Z,21.20
2023-05-14T20:43:09.078Z,21.24
2023-05-14T20:45:39.457Z,21.14
2023-05-14T20:48:10.373Z,21.09
2023-05-14T20:50:38.695Z,21.24
2023-05-14T20:53:07.269Z,21.23
2023-05-14T20:55:37.489Z,21.15
2023-05-14T20:58:05.912Z,21.10
2023-05-14T21:00:34.229Z,20.92
2023-05-14T21:03:08.395Z,21.03
2023-05-14T21:05:38.566Z,20.71
2023-05-14T21:08:07.491Z,20.96
2023-05-14T21:10:37.681Z,20.45
2023-05-14T21:13:07.736Z,20.69
2023-05-14T21:15:36.093Z,20.63
2023-05-14T21:18:04.404Z,20.53
2023-05-14T21:20:33.495Z,20.81
2023-05-14T21:23:01.868Z,20.85
2023-05-14T21:25:30.719Z,20.77
2023-05-14T21:28:03.089Z,20.80
2023-05-14T21:30:33.889Z,20.72
2023-05-14T21:33:03.674Z,20.39
2023-05-14T21:35:34.124Z,20.59
2023-05-14T21:38:04.416Z,20.67
2023-05-14T21:40:33.249Z,20.39
2023-05-14T21:43:05.040Z,20.40
2023-05-14T21:45:33.819Z,20.63
2023-05-14T21:48:02.587Z,20.58
2023-05-14T21:50:34.133Z,20.45
2023-05-14T21:53:02.786Z,20.61
2023-05-14T21:55:31.846Z,20.71
2023-05-14T21:58:03.111Z,20.55
2023-05-14T22:00:34.985Z,20.68
2023-05-14T22:03:03.362Z,20.61
2023-05-14T22:05:32.473Z,20.60
2023-05-14T22:08:02.726Z,20.39
2023-05-14T22:10:35.732Z,20.62
2023-05-14T22:13:04.236Z,20.22
2023-05-14T22:15:33.844Z,20.62
2023-05-14T22:18:03.447Z,20.66
2023-05-14T22:20:32.438Z,20.63
2023-05-14T22:23:01.159Z,20.60
2023-05-14T22:25:29.366Z,20.62
2023-05-14T22:27:57.665Z,20.63
2023-05-14T22:30:25.914Z,20.42
2023-05-14T22:32:55.813Z,20.12
2023-05-14T22:35:24.570Z,20.35
2023-05-14T22:37:53.390Z,20.12
2023-05-14T22:40:22.002Z,20.18
2023-05-14T22:42:50.400Z,20.15
2023-05-14T22:45:18.762Z,20.23
2023-05-14T22:47:46.988Z,20.06
2023-05-14T22:50:17.056Z,20.11
2023-05-14T22:52:45.435Z,20.22
2023-05-14T22:55:13.888Z,20.31
2023-05-14T22:57:42.171Z,20.31
2023-05-14T23:00:11.282Z,20.34
2023-05-14T23:02:39.758Z,20.27
2023-05-14T23:05:10.201Z,20.33
2023-05-14T23:07:40.835Z,20.29
2023-05-14T23:10:09.909Z,20.18
2023-05-14T23:12:38.125Z,19.95
2023-05-14T23:15:09.599Z,19.98
2023-05-14T23:17:39.308Z,19.96
2023-05-14T23:20:10.732Z,19.82
2023-05-14T23:22:40.938Z,19.94
2023-05-14T23:25:10.009Z,19.70
2023-05-14T23:27:38.897Z,19.72
2023-05-14T23:30:08.733Z,19.72
2023-05-14T23:32:40.042Z,19.57
2023-05-14T23:35:08.715Z,19.54
2023-05-14T23:37:41.904Z,19.57
2023-05-14T23:40:12.615Z,19.33
2023-05-14T23:42:40.969Z,19.52
2023-05-14T23:45:10.676Z,19.72
2023-05-14T23:47:39.520Z,19.64
2023-05-14T23:50:11.774Z,19.59
2023-05-14T23:52:40.357Z,19.34
2023-05-14T23:55:09.764Z,19.44
2023-05-14T23:57:39.616Z,19.25
